createdAt,value
2022-12-11T00:09:09.808Z,36.60
2022-12-11T00:19:11.336Z,38.93
2022-12-11T00:29:12.856Z,47.20
2022-12-11T00:39:14.542Z,42.47
2022-12-11T00:49:16.384Z,47.00
2022-12-11T00:59:17.953Z,42.35
2022-12-11T01:09:19.521Z,39.80
2022-12-11T01:19:21.154Z,38.30
2022-12-11T01:29:22.728Z,37.80
2022-12-11T01:39:24.686Z,39.23
2022-12-11T01:49:27.391Z,43.05
2022-12-11T01:59:32.772Z,38.60
2022-12-11T02:09:37.281Z,38.77
2022-12-11T02:20:01.513Z,35.08
2022-12-11T02:30:06.175Z,35.80
2022-12-11T02:40:10.738Z,36.57
2022-12-11T02:50:15.623Z,37.30
2022-12-11T03:00:17.540Z,36.90
2022-12-11T03:10:20.022Z,37.87
2022-12-11T03:20:30.697Z,41.97
2022-12-11T03:30:35.949Z,42.27
2022-12-11T03:40:40.360Z,43.10
2022-12-11T03:50:43.060Z,48.42
2022-12-11T04:00:44.674Z,50.97
2022-12-11T04:10:47.185Z,55.33
2022-12-11T04:20:48.758Z,57.90
2022-12-11T04:30:50.335Z,76.67
2022-12-11T04:41:06.530Z,51.97
2022-12-11T04:51:09.350Z,37.47
2022-12-11T05:01:16.556Z,33.60
2022-12-11T05:11:18.192Z,38.80
2022-12-11T05:21:19.858Z,42.87
2022-12-11T05:31:24.097Z,67.38
2022-12-11T05:41:28.113Z,66.87
2022-12-11T05:51:30.173Z,76.07
2022-12-11T06:01:41.086Z,58.00
2022-12-11T06:11:43.095Z,51.50
2022-12-11T06:21:45.734Z,58.97
2022-12-11T06:31:47.277Z,47.00
2022-12-11T06:41:48.838Z,50.03
2022-12-11T06:51:50.432Z,48.80
2022-12-11T07:01:52.083Z,46.43
2022-12-11T07:11:53.699Z,43.00
2022-12-11T07:21:56.448Z,34.93
2022-12-11T07:31:58.139Z,34.00
2022-12-11T07:41:59.995Z,27.50
2022-12-11T07:52:01.512Z,27.13
2022-12-11T08:02:03.187Z,28.80
2022-12-11T08:12:05.353Z,27.15
2022-12-11T08:22:07.101Z,22.20
2022-12-11T08:32:12.274Z,20.77
2022-12-11T08:42:14.253Z,18.40
2022-12-11T08:52:15.929Z,14.87
2022-12-11T09:02:17.615Z,14.50
2022-12-11T09:12:19.582Z,13.95
2022-12-11T09:22:21.683Z,13.00
2022-12-11T09:32:23.924Z,13.80
2022-12-11T09:42:41.434Z,16.75
2022-12-11T09:52:58.447Z,14.13
2022-12-11T10:03:22.068Z,15.53
2022-12-11T10:13:42.174Z,16.33
2022-12-11T10:23:50.995Z,18.23
2022-12-11T10:34:01.059Z,15.80
2022-12-11T10:44:18.132Z,16.50
2022-12-11T10:54:34.634Z,17.10
2022-12-11T11:04:43.218Z,17.23
2022-12-11T11:14:44.808Z,20.10
2022-12-11T11:24:52.013Z,20.33
2022-12-11T11:34:53.563Z,20.93
2022-12-11T11:45:24.891Z,18.65
2022-12-11T11:55:37.607Z,19.97
2022-12-11T12:05:50.890Z,20.37
2022-12-11T12:15:58.606Z,18.92
2022-12-11T12:26:20.475Z,16.63
2022-12-11T12:36:39.127Z,16.47
2022-12-11T12:46:49.547Z,15.63
2022-12-11T12:56:51.120Z,16.33
2022-12-11T13:06:52.888Z,15.47
2022-12-11T13:17:07.449Z,13.70
2022-12-11T13:27:11.382Z,13.03
2022-12-11T13:37:25.534Z,12.03
2022-12-11T13:47:28.850Z,13.82
2022-12-11T13:57:30.450Z,13.10
2022-12-11T14:07:42.069Z,14.63
2022-12-11T14:17:48.461Z,11.68
2022-12-11T14:27:56.266Z,8.40
2022-12-11T14:38:02.584Z,9.10
2022-12-11T14:48:09.325Z,11.23
2022-12-11T14:58:21.974Z,9.77
2022-12-11T15:08:34.938Z,11.68
2022-12-11T15:18:40.405Z,9.03
2022-12-11T15:28:41.958Z,9.37
2022-12-11T15:38:43.479Z,8.90
2022-12-11T15:48:45.066Z,7.10
2022-12-11T15:58:48.074Z,9.37
2022-12-11T16:08:49.598Z,9.00
2022-12-11T16:18:51.145Z,8.57
2022-12-11T16:28:52.718Z,8.30
2022-12-11T16:38:54.546Z,10.70
2022-12-11T16:48:56.280Z,8.35
2022-12-11T16:58:57.988Z,9.27
2022-12-11T17:08:59.544Z,7.80
2022-12-11T17:19:01.073Z,8.75
2022-12-11T17:29:03.496Z,11.83
2022-12-11T17:39:05.084Z,16.03
2022-12-11T17:49:06.619Z,14.02
2022-12-11T17:59:08.200Z,21.90
2022-12-11T18:09:09.780Z,13.40
2022-12-11T18:19:11.902Z,13.27
2022-12-11T18:29:13.432Z,12.60
2022-12-11T18:39:14.972Z,9.77
2022-12-11T18:49:16.559Z,10.33
2022-12-11T18:59:18.088Z,17.13
2022-12-11T19:09:19.616Z,11.67
2022-12-11T19:19:21.808Z,9.97
2022-12-11T19:29:26.002Z,15.25
2022-12-11T19:39:27.535Z,16.07
2022-12-11T19:49:29.162Z,19.03
2022-12-11T19:59:30.724Z,16.63
2022-12-11T20:09:32.424Z,17.17
2022-12-11T20:19:34.085Z,16.87
2022-12-11T20:29:35.655Z,17.17
2022-12-11T20:39:37.179Z,19.43
2022-12-11T20:49:39.194Z,21.53
2022-12-11T20:59:40.759Z,22.25
2022-12-11T21:09:42.361Z,21.63
2022-12-11T21:19:43.925Z,21.23
2022-12-11T21:29:45.456Z,19.10
2022-12-11T21:39:47.022Z,18.50
2022-12-11T21:49:48.606Z,16.20
2022-12-11T21:59:50.951Z,19.00
2022-12-11T22:09:52.533Z,17.77
2022-12-11T22:19:54.041Z,28.87
2022-12-11T22:29:55.616Z,28.70
2022-12-11T22:39:57.205Z,28.73
2022-12-11T22:49:58.720Z,30.40
2022-12-11T23:00:00.280Z,25.27
2022-12-11T23:10:02.306Z,27.52
2022-12-11T23:20:05.480Z,29.83
2022-12-11T23:30:08.253Z,28.30
2022-12-11T23:40:10.615Z,36.88
2022-12-11T23:50:12.185Z,34.97
